SBAN

Base Aérea Airport

Anápolis, Brazil
TAF SBAN 181400Z 1818/1906 09005KT CAVOK TX26/1818Z TN16/1905Z BECMG 1900/1902 09008KT RMK PDE
Issued Valid From Valid To
Jul-18 @ 14:00 UTC
(8 hours ago)
Jul-18 @ 18:00 UTC
(4 hours ago)
Jul-19 @ 06:00 UTC
(in 8 hours)
Jul-18 @ 18:00 to Jul-19 @ 00:00
TAF SBAN 181400Z 1818/1906 09005KT CAVOK TX26/1818Z TN16/1905Z
Wind Visibility Clouds
90° at 5 knots 10,000+ meters
  • No significant clouds
Becoming Jul-19 @ 00:00 to Jul-19 @ 06:00
BECMG 1900/1902 09008KT RMK PDE
Wind Visibility Clouds
90° at 8 knots 10,000+ meters
  • No significant clouds
TAF SBAN 181400Z 1818/1906 09005KT CAVOK TX26/1818Z TN16/1905Z BECMG 1900/1902 09008KT RMK PDE
Issued Jul-18 @ 14:00 UTC
(8 hours ago)
Valid From Jul-18 @ 18:00 UTC
(4 hours ago)
Valid To Jul-19 @ 06:00 UTC
(in 8 hours)
Jul-18 @ 18:00 - Jul-19 @ 00:00
Wind Visibility
90° at 5 knots 10,000+ meters
Clouds
  • No significant clouds
Becoming Jul-19 @ 00:00 - Jul-19 @ 06:00
Wind Visibility
90° at 8 knots 10,000+ meters
Clouds
  • No significant clouds